Terminal Aerodrome Forecast
Issued by NWS Quad Cities IA IL

Home | Current Version | Previous Version | Text Only | Print | Product List | Glossary On
Versions: 1 2 3 4 5 6 7 8 9 10 11 12 13 14 15 16 17
790
FTUS43 KDVN 090529
TAFMLI
TAF
KMLI 090529Z 0906/1006 31014KT 6SM -SN SCT020 OVC030
      TEMPO 0906/0909 2SM -SN BR BKN015 OVC025
     FM090900 32014KT 6SM -SN BR BKN015 OVC025
     FM091800 32015G25KT P6SM SKC=

USA.gov is the U.S. government's official web portal to all federal, state and local government web resources and services.